createdAt,value
2018-10-12T00:07:42.936Z,10.63
2018-10-12T00:10:12.137Z,11.20
2018-10-12T00:12:41.475Z,11.37
2018-10-12T00:15:10.648Z,11.00
2018-10-12T00:17:39.481Z,10.73
2018-10-12T00:20:08.666Z,10.63
2018-10-12T00:22:37.528Z,11.37
2018-10-12T00:25:07.145Z,11.50
2018-10-12T00:27:35.981Z,10.17
2018-10-12T00:30:04.821Z,11.50
2018-10-12T00:32:33.978Z,10.80
2018-10-12T00:35:02.805Z,10.80
2018-10-12T00:37:31.645Z,11.13
2018-10-12T00:40:00.461Z,11.47
2018-10-12T00:42:29.288Z,12.67
2018-10-12T00:44:58.077Z,11.10
2018-10-12T00:47:26.915Z,11.03
2018-10-12T00:49:55.786Z,11.17
2018-10-12T00:52:24.572Z,10.27
2018-10-12T00:54:53.377Z,11.00
2018-10-12T00:57:22.405Z,10.97
2018-10-12T00:59:51.590Z,11.13
2018-10-12T01:02:21.131Z,11.33
2018-10-12T01:04:49.924Z,10.93
2018-10-12T01:07:18.761Z,11.33
2018-10-12T01:09:47.661Z,11.60
2018-10-12T01:12:34.557Z,11.07
2018-10-12T01:15:04.101Z,10.93
2018-10-12T01:17:33.753Z,10.40
2018-10-12T01:20:03.549Z,10.10
2018-10-12T01:22:32.517Z,10.80
2018-10-12T01:25:02.889Z,10.03
2018-10-12T01:27:32.243Z,10.70
2018-10-12T01:30:01.317Z,10.80
2018-10-12T01:32:35.569Z,10.57
2018-10-12T01:35:04.415Z,9.80
2018-10-12T01:37:33.256Z,9.43
2018-10-12T01:40:02.117Z,10.37
2018-10-12T01:42:30.937Z,9.60
2018-10-12T01:45:19.073Z,9.93
2018-10-12T01:47:47.933Z,9.73
2018-10-12T01:50:16.753Z,9.37
2018-10-12T01:52:45.617Z,9.47
2018-10-12T01:55:14.428Z,9.53
2018-10-12T01:57:43.273Z,10.13
2018-10-12T02:00:12.189Z,9.07
2018-10-12T02:02:41.725Z,9.10
2018-10-12T02:05:10.805Z,9.27
2018-10-12T02:07:39.837Z,9.77
2018-10-12T02:10:08.953Z,9.33
2018-10-12T02:12:37.785Z,9.40
2018-10-12T02:15:06.821Z,9.37
2018-10-12T02:17:35.933Z,9.20
2018-10-12T02:20:05.154Z,9.30
2018-10-12T02:22:34.250Z,9.00
2018-10-12T02:25:03.411Z,9.10
2018-10-12T02:27:32.515Z,9.03
2018-10-12T02:30:01.890Z,9.47
2018-10-12T02:32:31.296Z,9.57
2018-10-12T02:35:00.738Z,9.67
2018-10-12T02:37:29.806Z,10.10
2018-10-12T02:39:58.943Z,9.73
2018-10-12T02:42:28.006Z,9.60
2018-10-12T02:44:57.024Z,10.00
2018-10-12T02:47:26.342Z,9.97
2018-10-12T02:49:55.422Z,9.83
2018-10-12T02:52:24.493Z,10.50
2018-10-12T02:54:53.649Z,10.33
2018-10-12T02:57:22.985Z,9.63
2018-10-12T02:59:52.595Z,9.70
2018-10-12T03:02:21.727Z,9.87
2018-10-12T03:04:50.961Z,9.80
2018-10-12T03:07:20.015Z,10.13
2018-10-12T03:09:49.250Z,9.43
2018-10-12T03:12:18.390Z,10.10
2018-10-12T03:14:47.495Z,9.87
2018-10-12T03:17:16.669Z,10.27
2018-10-12T03:19:45.948Z,9.87
2018-10-12T03:22:14.886Z,10.23
2018-10-12T03:24:44.007Z,10.10
2018-10-12T03:27:13.066Z,10.40
2018-10-12T03:29:42.165Z,10.20
2018-10-12T03:32:11.322Z,10.10
2018-10-12T03:34:40.633Z,10.47
2018-10-12T03:37:09.851Z,9.90
2018-10-12T03:39:39.455Z,9.70
2018-10-12T03:42:08.902Z,10.27
2018-10-12T03:44:38.038Z,9.73
2018-10-12T03:47:07.071Z,9.47
2018-10-12T03:49:36.189Z,9.47
2018-10-12T03:52:08.336Z,9.70
2018-10-12T03:54:37.588Z,9.40
2018-10-12T03:57:06.921Z,9.63
2018-10-12T03:59:36.018Z,10.67
2018-10-12T04:02:05.145Z,9.93
2018-10-12T04:04:34.570Z,10.00
2018-10-12T04:07:03.877Z,10.03
2018-10-12T04:09:33.181Z,9.90
2018-10-12T04:12:02.666Z,9.63
2018-10-12T04:14:31.746Z,10.50
2018-10-12T04:17:00.794Z,9.50
2018-10-12T04:19:29.908Z,9.93
2018-10-12T04:21:59.321Z,10.47
2018-10-12T04:24:28.844Z,10.27
2018-10-12T04:26:58.238Z,10.20
2018-10-12T04:29:27.395Z,9.77
2018-10-12T04:31:56.476Z,9.23
2018-10-12T04:34:25.589Z,9.27
2018-10-12T04:36:54.679Z,9.90
2018-10-12T04:39:37.510Z,10.10
2018-10-12T04:42:06.638Z,9.93
2018-10-12T04:44:35.758Z,10.70
2018-10-12T04:47:04.949Z,10.23
2018-10-12T04:49:34.065Z,11.13
2018-10-12T04:52:03.330Z,10.07
2018-10-12T04:54:32.482Z,9.97
2018-10-12T04:57:01.610Z,9.63
2018-10-12T04:59:30.732Z,10.17
2018-10-12T05:02:00.018Z,9.73
2018-10-12T05:04:29.402Z,9.00
2018-10-12T05:06:59.054Z,9.87
2018-10-12T05:09:28.490Z,9.73
2018-10-12T05:11:57.902Z,9.77
2018-10-12T05:14:27.042Z,10.87
2018-10-12T05:16:56.735Z,9.97
2018-10-12T05:19:25.863Z,10.30
2018-10-12T05:21:54.996Z,10.40
2018-10-12T05:24:24.087Z,9.80
2018-10-12T05:26:53.161Z,10.20
2018-10-12T05:29:22.275Z,10.10
2018-10-12T05:31:51.390Z,10.40
2018-10-12T05:34:20.801Z,10.43
2018-10-12T05:36:50.421Z,10.97
2018-10-12T05:39:19.951Z,11.43
2018-10-12T05:41:49.342Z,11.07
2018-10-12T05:44:19.663Z,10.40
2018-10-12T05:46:48.796Z,9.97
2018-10-12T05:49:28.774Z,9.90
2018-10-12T05:51:58.245Z,10.37
2018-10-12T05:54:27.542Z,10.57
2018-10-12T05:56:57.192Z,10.63
2018-10-12T05:59:26.599Z,10.37
2018-10-12T06:01:55.741Z,10.67
2018-10-12T06:04:24.850Z,11.43
2018-10-12T06:06:54.478Z,11.03
2018-10-12T06:09:23.842Z,10.87
2018-10-12T06:11:53.102Z,11.30
2018-10-12T06:14:22.394Z,11.30
2018-10-12T06:16:51.499Z,10.70
2018-10-12T06:19:20.548Z,11.20
2018-10-12T06:21:49.966Z,10.83
2018-10-12T06:24:19.345Z,11.13
2018-10-12T06:26:48.714Z,11.17
2018-10-12T06:29:17.866Z,11.00
2018-10-12T06:31:47.238Z,11.53
2018-10-12T06:34:18.023Z,10.67
2018-10-12T06:36:47.159Z,10.40
2018-10-12T06:39:16.846Z,12.07
2018-10-12T06:41:46.449Z,11.33
2018-10-12T06:44:15.724Z,12.47
2018-10-12T06:46:44.990Z,11.97
2018-10-12T06:49:15.390Z,11.50
2018-10-12T06:51:44.725Z,11.30
2018-10-12T06:54:14.167Z,10.93
2018-10-12T06:56:43.893Z,11.53
2018-10-12T06:59:13.647Z,11.70
2018-10-12T07:01:42.944Z,10.77
2018-10-12T07:04:13.672Z,11.33
2018-10-12T07:06:42.823Z,11.90
2018-10-12T07:09:13.431Z,11.37
2018-10-12T07:11:42.955Z,11.17
2018-10-12T07:14:12.702Z,10.83
2018-10-12T07:16:42.350Z,11.73
2018-10-12T07:19:11.653Z,10.57
2018-10-12T07:21:40.828Z,10.60
2018-10-12T07:24:10.343Z,10.43
2018-10-12T07:26:39.758Z,10.93
2018-10-12T07:29:08.896Z,10.40
2018-10-12T07:31:38.013Z,9.73
2018-10-12T07:34:07.094Z,11.63
2018-10-12T07:36:36.565Z,10.87
2018-10-12T07:39:07.876Z,11.00
2018-10-12T07:41:37.281Z,10.73
2018-10-12T07:44:07.115Z,9.90
2018-10-12T07:46:36.575Z,10.00
2018-10-12T07:49:05.831Z,10.10
2018-10-12T07:51:34.932Z,10.17
2018-10-12T07:54:04.405Z,10.53
2018-10-12T07:56:33.527Z,9.80
2018-10-12T07:59:02.885Z,9.77
2018-10-12T08:01:32.398Z,9.90
2018-10-12T08:04:01.724Z,9.47
2018-10-12T08:06:31.176Z,9.30
2018-10-12T08:09:00.678Z,9.73
2018-10-12T08:11:30.299Z,9.07
2018-10-12T08:14:00.404Z,8.93
2018-10-12T08:16:29.451Z,9.13
2018-10-12T08:18:58.830Z,8.43
2018-10-12T08:21:28.437Z,9.00
2018-10-12T08:23:57.996Z,8.07
2018-10-12T08:26:27.174Z,8.30
2018-10-12T08:28:56.318Z,7.97
2018-10-12T08:31:25.416Z,7.40
2018-10-12T08:33:54.573Z,7.80
2018-10-12T08:36:23.861Z,7.40
2018-10-12T08:38:53.242Z,7.17
2018-10-12T08:41:22.364Z,7.87
2018-10-12T08:43:51.529Z,7.90
2018-10-12T08:46:20.665Z,7.50
2018-10-12T08:48:49.978Z,7.57
2018-10-12T08:51:19.495Z,7.53
2018-10-12T08:53:49.022Z,7.33
2018-10-12T08:56:18.643Z,8.17
2018-10-12T08:58:47.774Z,6.80
2018-10-12T09:01:16.917Z,7.33
2018-10-12T09:03:46.084Z,7.10
2018-10-12T09:06:15.582Z,7.97
2018-10-12T09:08:44.836Z,7.77
2018-10-12T09:11:14.195Z,7.57
2018-10-12T09:13:43.446Z,7.30
2018-10-12T09:16:12.623Z,7.43
2018-10-12T09:18:41.750Z,7.50
2018-10-12T09:21:10.965Z,7.43
2018-10-12T09:23:40.489Z,6.70
2018-10-12T09:26:09.670Z,6.37
2018-10-12T09:28:38.873Z,7.07
2018-10-12T09:31:08.163Z,6.57
2018-10-12T09:33:37.258Z,6.63
2018-10-12T09:36:06.438Z,6.37
2018-10-12T09:38:35.723Z,6.17
2018-10-12T09:41:04.847Z,6.50
2018-10-12T09:43:33.963Z,5.90
2018-10-12T09:46:03.142Z,5.43
2018-10-12T09:48:32.475Z,6.03
2018-10-12T09:51:01.634Z,6.57
2018-10-12T09:53:31.082Z,5.90
2018-10-12T09:56:00.298Z,5.50
2018-10-12T09:58:29.446Z,4.73
2018-10-12T10:01:03.830Z,5.93
2018-10-12T10:03:38.011Z,5.57
2018-10-12T10:06:07.075Z,5.23
2018-10-12T10:08:36.343Z,5.60
2018-10-12T10:11:05.303Z,5.03
2018-10-12T10:13:34.476Z,5.20
2018-10-12T10:16:03.609Z,4.90
2018-10-12T10:18:32.781Z,4.87
2018-10-12T10:21:01.918Z,4.00
2018-10-12T10:23:30.947Z,3.97
2018-10-12T10:26:00.129Z,3.70
2018-10-12T10:28:29.634Z,4.27
2018-10-12T10:30:58.795Z,4.80
2018-10-12T10:33:27.907Z,4.40
2018-10-12T10:35:57.066Z,4.10
2018-10-12T10:38:26.181Z,3.83
2018-10-12T10:40:55.350Z,4.43
2018-10-12T10:43:24.558Z,4.80
2018-10-12T10:45:53.711Z,4.60
2018-10-12T10:48:23.073Z,4.37
2018-10-12T10:50:52.221Z,4.50
2018-10-12T10:53:21.666Z,4.37
2018-10-12T10:55:50.866Z,4.00
2018-10-12T10:58:20.031Z,4.23
2018-10-12T11:00:49.398Z,4.10
2018-10-12T11:03:18.510Z,4.47
2018-10-12T11:05:47.608Z,3.80
2018-10-12T11:08:16.747Z,4.20
2018-10-12T11:10:45.923Z,4.30
2018-10-12T11:13:15.105Z,4.70
2018-10-12T11:15:44.254Z,4.40
2018-10-12T11:21:10.167Z,4.60
2018-10-12T11:23:39.320Z,4.20
2018-10-12T11:26:10.313Z,4.37
2018-10-12T11:28:39.750Z,4.00
2018-10-12T11:31:09.073Z,3.87
2018-10-12T11:33:40.054Z,3.73
2018-10-12T11:36:09.572Z,3.97
2018-10-12T11:38:38.736Z,4.20
2018-10-12T11:41:08.277Z,4.07
2018-10-12T11:43:38.814Z,3.80
2018-10-12T11:46:08.021Z,4.30
2018-10-12T11:48:37.407Z,4.40
2018-10-12T11:51:06.582Z,4.50
2018-10-12T11:53:35.703Z,4.33
2018-10-12T11:56:05.870Z,4.63
2018-10-12T11:58:34.950Z,4.70
2018-10-12T12:01:04.161Z,5.10
2018-10-12T12:03:33.198Z,4.17
2018-10-12T12:06:02.295Z,4.37
2018-10-12T12:08:31.430Z,4.50
2018-10-12T12:11:00.489Z,4.30
2018-10-12T12:13:29.695Z,4.85
2018-10-12T12:15:58.911Z,4.03
2018-10-12T12:18:28.070Z,4.40
2018-10-12T12:20:57.213Z,4.00
2018-10-12T12:23:26.384Z,3.83
2018-10-12T12:25:55.526Z,4.42
2018-10-12T12:28:24.953Z,4.30
2018-10-12T12:30:54.078Z,4.42
2018-10-12T12:33:23.273Z,4.83
2018-10-12T12:35:53.501Z,4.20
2018-10-12T12:38:22.286Z,4.00
2018-10-12T12:40:51.358Z,4.22
2018-10-12T12:43:20.507Z,4.70
2018-10-12T12:45:49.694Z,4.70
2018-10-12T12:48:19.434Z,4.30
2018-10-12T12:50:48.339Z,4.50
2018-10-12T12:53:17.418Z,4.60
2018-10-12T12:55:46.582Z,4.33
2018-10-12T12:58:16.117Z,4.42
2018-10-12T13:00:44.936Z,4.37
2018-10-12T13:03:13.970Z,4.30
2018-10-12T13:05:43.178Z,4.37
2018-10-12T13:08:12.282Z,4.30
2018-10-12T13:10:41.542Z,4.17
2018-10-12T13:13:10.605Z,4.12
2018-10-12T13:15:39.734Z,4.50
2018-10-12T13:18:08.830Z,3.85
2018-10-12T13:20:37.954Z,3.85
2018-10-12T13:23:07.063Z,4.20
2018-10-12T13:25:36.171Z,10.50
2018-10-12T13:28:05.351Z,15.93
2018-10-12T13:30:34.454Z,7.10
2018-10-12T13:33:03.645Z,4.85
2018-10-12T13:35:32.851Z,3.98
2018-10-12T13:38:01.982Z,4.50
2018-10-12T13:40:31.050Z,4.33
2018-10-12T13:43:00.220Z,4.10
2018-10-12T13:45:29.382Z,4.42
2018-10-12T13:47:58.558Z,4.10
2018-10-12T13:50:27.914Z,4.50
2018-10-12T13:52:57.099Z,4.25
2018-10-12T13:55:26.121Z,4.10
2018-10-12T13:57:55.235Z,3.62
2018-10-12T14:00:24.700Z,4.47
2018-10-12T14:02:53.841Z,4.87
2018-10-12T14:05:23.001Z,4.12
2018-10-12T14:07:52.210Z,4.92
2018-10-12T14:10:21.355Z,5.45
2018-10-12T14:12:50.451Z,8.95
2018-10-12T14:15:19.605Z,13.30
2018-10-12T14:17:48.729Z,3.90
2018-10-12T14:20:17.815Z,4.30
2018-10-12T14:22:46.952Z,3.70
2018-10-12T14:25:16.200Z,4.20
2018-10-12T14:27:45.214Z,3.85
2018-10-12T14:30:14.335Z,3.70
2018-10-12T14:32:43.462Z,3.67
2018-10-12T14:35:12.616Z,3.50
2018-10-12T14:37:41.908Z,3.58
2018-10-12T14:40:11.004Z,3.70
2018-10-12T14:42:40.167Z,3.50
2018-10-12T14:45:09.393Z,3.30
2018-10-12T14:47:38.546Z,3.80
2018-10-12T14:50:08.081Z,3.60
2018-10-12T14:52:51.157Z,3.30
2018-10-12T14:55:23.307Z,3.30
2018-10-12T14:57:53.822Z,3.10
2018-10-12T15:00:23.083Z,3.15
2018-10-12T15:02:52.218Z,3.40
2018-10-12T15:05:21.409Z,2.95
2018-10-12T15:07:50.486Z,3.25
2018-10-12T15:10:19.576Z,3.90
2018-10-12T15:12:48.830Z,3.50
2018-10-12T15:15:21.860Z,3.20
2018-10-12T15:17:51.857Z,3.17
2018-10-12T15:20:21.563Z,3.10
2018-10-12T15:22:50.879Z,3.10
2018-10-12T15:28:30.805Z,2.90
2018-10-12T15:31:00.038Z,3.10
2018-10-12T15:33:29.081Z,2.97
2018-10-12T15:35:58.198Z,3.20
2018-10-12T15:38:27.384Z,3.30
2018-10-12T15:40:56.507Z,3.35
2018-10-12T15:43:25.639Z,3.10
2018-10-12T15:45:54.792Z,3.20
2018-10-12T15:48:23.947Z,3.00
2018-10-12T15:50:53.097Z,3.17
2018-10-12T15:53:22.250Z,3.10
2018-10-12T15:55:51.410Z,2.90
2018-10-12T15:58:20.554Z,2.97
2018-10-12T16:00:49.751Z,3.43
2018-10-12T16:03:18.858Z,3.23
2018-10-12T16:05:48.020Z,3.47
2018-10-12T16:08:17.426Z,3.03
2018-10-12T16:10:46.707Z,3.40
2018-10-12T16:13:16.297Z,3.43
2018-10-12T16:15:45.447Z,3.30
2018-10-12T16:18:14.770Z,3.37
2018-10-12T16:20:43.923Z,3.30
2018-10-12T16:23:13.077Z,3.17
2018-10-12T16:25:55.793Z,3.00
2018-10-12T16:28:24.922Z,3.20
2018-10-12T16:30:54.798Z,3.63
2018-10-12T16:33:24.259Z,3.17
2018-10-12T16:35:54.853Z,3.43
2018-10-12T16:38:23.939Z,3.07
2018-10-12T16:40:53.191Z,3.20
2018-10-12T16:43:22.250Z,3.13
2018-10-12T16:45:52.224Z,3.20
2018-10-12T16:48:21.399Z,3.30
2018-10-12T16:50:50.770Z,3.30
2018-10-12T16:53:19.835Z,3.07
2018-10-12T16:55:48.975Z,3.40
2018-10-12T16:58:18.767Z,3.17
2018-10-12T17:00:47.741Z,3.37
2018-10-12T17:06:09.847Z,2.90
2018-10-12T17:08:38.854Z,3.30
2018-10-12T17:11:08.190Z,3.20
2018-10-12T17:13:37.259Z,3.43
2018-10-12T17:16:06.681Z,3.50
2018-10-12T17:18:35.825Z,3.70
2018-10-12T17:21:04.998Z,3.50
2018-10-12T17:23:34.073Z,3.63
2018-10-12T17:26:03.270Z,3.30
2018-10-12T17:28:32.318Z,3.40
2018-10-12T17:31:01.434Z,3.27
2018-10-12T17:33:31.135Z,3.43
2018-10-12T17:36:00.317Z,3.70
2018-10-12T17:38:29.533Z,3.53
2018-10-12T17:40:58.737Z,3.97
2018-10-12T17:43:27.974Z,3.47
2018-10-12T17:45:57.322Z,3.40
2018-10-12T17:48:26.420Z,3.50
2018-10-12T17:50:55.573Z,3.60
2018-10-12T17:53:24.672Z,4.00
2018-10-12T17:55:54.122Z,3.70
2018-10-12T17:58:23.444Z,3.60
2018-10-12T18:00:53.755Z,3.73
2018-10-12T18:03:22.861Z,3.47
2018-10-12T18:05:52.393Z,3.60
2018-10-12T18:08:21.586Z,3.50
2018-10-12T18:10:50.731Z,3.90
2018-10-12T18:13:19.879Z,3.80
2018-10-12T18:15:49.038Z,3.80
2018-10-12T18:18:18.163Z,3.83
2018-10-12T18:20:47.281Z,3.90
2018-10-12T18:23:16.404Z,3.90
2018-10-12T18:25:45.605Z,3.77
2018-10-12T18:28:15.282Z,3.93
2018-10-12T18:30:44.967Z,3.73
2018-10-12T18:33:14.454Z,3.70
2018-10-12T18:35:44.443Z,3.90
2018-10-12T18:38:13.918Z,3.93
2018-10-12T18:40:43.493Z,3.53
2018-10-12T18:43:13.002Z,4.20
2018-10-12T18:45:42.355Z,4.43
2018-10-12T18:48:27.394Z,3.80
2018-10-12T18:50:56.845Z,3.73
2018-10-12T18:53:26.297Z,4.00
2018-10-12T18:55:55.934Z,3.87
2018-10-12T18:58:26.389Z,4.57
2018-10-12T19:01:01.714Z,4.10
2018-10-12T19:03:31.092Z,3.77
2018-10-12T19:06:00.739Z,3.67
2018-10-12T19:08:30.351Z,4.23
2018-10-12T19:11:00.346Z,3.93
2018-10-12T19:13:40.314Z,4.20
2018-10-12T19:16:09.579Z,3.70
2018-10-12T19:18:39.468Z,4.43
2018-10-12T19:21:08.888Z,3.70
2018-10-12T19:23:38.815Z,4.03
2018-10-12T19:26:27.985Z,4.63
2018-10-12T19:28:57.532Z,3.97
2018-10-12T19:31:27.035Z,4.40
2018-10-12T19:33:56.521Z,4.70
2018-10-12T19:36:26.329Z,4.23
2018-10-12T19:38:59.254Z,4.53
2018-10-12T19:41:29.046Z,5.00
2018-10-12T19:43:59.656Z,4.20
2018-10-12T19:46:29.683Z,4.60
2018-10-12T19:48:59.886Z,4.63
2018-10-12T19:51:30.194Z,4.40
2018-10-12T19:54:01.748Z,4.90
2018-10-12T19:56:31.333Z,3.90
2018-10-12T19:59:01.042Z,4.60
2018-10-12T20:01:30.779Z,4.43
2018-10-12T20:04:00.347Z,4.67
2018-10-12T20:06:30.231Z,4.60
2018-10-12T20:09:00.943Z,4.70
2018-10-12T20:11:30.730Z,4.93
2018-10-12T20:14:00.453Z,4.83
2018-10-12T20:16:29.651Z,5.50
2018-10-12T20:18:59.073Z,5.43
2018-10-12T20:21:28.251Z,5.07
2018-10-12T20:23:57.485Z,5.47
2018-10-12T20:26:26.730Z,4.90
2018-10-12T20:28:55.893Z,5.50
2018-10-12T20:31:25.154Z,5.50
2018-10-12T20:33:54.251Z,5.37
2018-10-12T20:36:23.458Z,5.70
2018-10-12T20:38:53.771Z,5.40
2018-10-12T20:41:32.492Z,4.80
2018-10-12T20:44:01.607Z,4.83
2018-10-12T20:46:30.775Z,4.67
2018-10-12T20:48:59.914Z,5.20
2018-10-12T20:51:29.236Z,5.80
2018-10-12T20:53:58.349Z,5.67
2018-10-12T20:56:27.530Z,5.80
2018-10-12T20:58:56.750Z,6.40
2018-10-12T21:01:25.830Z,6.20
2018-10-12T21:03:55.028Z,5.90
2018-10-12T21:06:24.134Z,5.83
2018-10-12T21:08:54.258Z,5.90
2018-10-12T21:11:23.375Z,5.40
2018-10-12T21:13:53.015Z,5.83
2018-10-12T21:16:22.215Z,6.10
2018-10-12T21:18:51.902Z,6.10
2018-10-12T21:21:21.013Z,6.30
2018-10-12T21:23:50.369Z,6.30
2018-10-12T21:26:19.474Z,6.13
2018-10-12T21:28:48.546Z,6.27
2018-10-12T21:31:17.686Z,6.03
2018-10-12T21:33:46.801Z,6.30
2018-10-12T21:36:15.954Z,6.40
2018-10-12T21:38:45.106Z,6.63
2018-10-12T21:41:14.211Z,6.07
2018-10-12T21:43:43.371Z,6.57
2018-10-12T21:46:12.537Z,6.30
2018-10-12T21:48:41.574Z,6.30
2018-10-12T21:51:10.597Z,6.83
2018-10-12T21:53:39.973Z,6.37
2018-10-12T21:56:09.290Z,6.17
2018-10-12T21:58:38.377Z,6.30
2018-10-12T22:01:07.496Z,6.93
2018-10-12T22:03:37.439Z,6.40
2018-10-12T22:06:06.681Z,7.03
2018-10-12T22:08:41.042Z,7.33
2018-10-12T22:11:10.138Z,7.63
2018-10-12T22:13:39.534Z,7.53
2018-10-12T22:16:09.042Z,8.60
2018-10-12T22:18:38.638Z,9.07
2018-10-12T22:21:08.057Z,9.00
2018-10-12T22:23:37.149Z,9.40
2018-10-12T22:26:06.924Z,9.87
2018-10-12T22:28:36.034Z,8.73
2018-10-12T22:31:05.250Z,9.03
2018-10-12T22:33:34.290Z,9.17
2018-10-12T22:36:03.435Z,8.17
2018-10-12T22:38:32.498Z,8.20
2018-10-12T22:41:01.623Z,9.33
2018-10-12T22:43:30.730Z,8.53
2018-10-12T22:45:59.900Z,7.73
2018-10-12T22:48:28.963Z,7.87
2018-10-12T22:50:58.074Z,8.27
2018-10-12T22:53:27.135Z,7.13
2018-10-12T22:55:56.290Z,6.57
2018-10-12T22:58:25.717Z,6.60
2018-10-12T23:00:54.834Z,6.07
2018-10-12T23:03:23.963Z,6.90
2018-10-12T23:05:53.064Z,6.60
2018-10-12T23:08:22.082Z,6.60
2018-10-12T23:10:51.270Z,6.60
2018-10-12T23:13:20.397Z,6.80
2018-10-12T23:15:49.542Z,7.67
2018-10-12T23:18:18.646Z,7.60
2018-10-12T23:20:48.128Z,7.20
2018-10-12T23:23:17.607Z,6.70
2018-10-12T23:25:46.683Z,7.03
2018-10-12T23:28:15.669Z,6.90
2018-10-12T23:30:45.274Z,6.93
2018-10-12T23:33:25.301Z,6.33
2018-10-12T23:35:54.611Z,7.37
2018-10-12T23:38:23.965Z,7.20
2018-10-12T23:40:53.309Z,7.73
2018-10-12T23:43:22.337Z,8.77
2018-10-12T23:45:51.472Z,8.17
2018-10-12T23:48:20.562Z,8.73
2018-10-12T23:50:49.833Z,8.70
2018-10-12T23:53:18.910Z,8.67
2018-10-12T23:55:48.059Z,8.83
2018-10-12T23:58:17.069Z,8.20
